Time;durP1;ratioP1;P1;durP2;ratioP2;P2;SDS_P1;SDS_P2;PMS_P1;PMS_P2;Temp;Humidity;BMP_temperature;BMP_pressure;BME280_temperature;BME280_humidity;BME280_pressure;Samples;Min_cycle;Max_cycle;Signal;HPM_P1;HPM_P2
2021/06/23 00:01:42;;;;;;;26.40;15.73;;;;;;;;;;5012412;28;20064;-66
2021/06/23 00:04:08;;;;;;;25.98;15.30;;;;;;;;;;5012617;28;20575;-65
2021/06/23 00:06:34;;;;;;;23.85;14.82;;;;;;;;;;5012303;28;20284;-64
2021/06/23 00:09:00;;;;;;;24.05;14.45;;;;;;;;;;5030423;28;20097;-64
2021/06/23 00:11:26;;;;;;;26.35;14.50;;;;;;;;;;5031546;28;20059;-63
2021/06/23 00:13:52;;;;;;;26.23;15.32;;;;;;;;;;5031804;28;20416;-64
2021/06/23 00:16:18;;;;;;;25.73;15.43;;;;;;;;;;5013696;28;20026;-64
2021/06/23 00:18:44;;;;;;;22.98;14.88;;;;;;;;;;5031977;28;20033;-66
2021/06/23 00:21:10;;;;;;;21.73;15.02;;;;;;;;;;5031965;28;20030;-64
2021/06/23 00:23:36;;;;;;;22.55;14.10;;;;;;;;;;5031630;28;20469;-64
2021/06/23 00:26:02;;;;;;;21.63;14.35;;;;;;;;;;5031374;28;20026;-65
2021/06/23 00:28:30;;;;;;;22.98;15.27;;;;;;;;;;5032923;28;20107;-64
2021/06/23 00:30:56;;;;;;;25.65;15.20;;;;;;;;;;5031532;28;20036;-65
2021/06/23 00:33:23;;;;;;;24.02;15.18;;;;;;;;;;5031686;28;20436;-65
2021/06/23 00:35:49;;;;;;;21.67;13.90;;;;;;;;;;5031467;28;20380;-65
2021/06/23 00:38:15;;;;;;;23.38;14.80;;;;;;;;;;5031587;28;20049;-66
2021/06/23 00:40:42;;;;;;;23.88;14.80;;;;;;;;;;5031564;28;20037;-64
2021/06/23 00:43:08;;;;;;;23.95;14.35;;;;;;;;;;5031371;28;20401;-64
2021/06/23 00:45:34;;;;;;;25.17;14.77;;;;;;;;;;5013836;28;20040;-65
2021/06/23 00:48:01;;;;;;;29.02;16.30;;;;;;;;;;5031295;28;20026;-64
2021/06/23 00:50:28;;;;;;;21.80;13.80;;;;;;;;;;5031452;28;20029;-64
2021/06/23 00:52:54;;;;;;;23.75;14.55;;;;;;;;;;5013963;28;20096;-64
2021/06/23 00:55:24;;;;;;;24.45;14.65;;;;;;;;;;5031041;28;20079;-64
2021/06/23 00:57:51;;;;;;;26.08;14.85;;;;;;;;;;5031239;28;20050;-64
2021/06/23 01:00:26;;;;;;;26.08;14.40;;;;;;;;;;5031303;28;20075;-64
2021/06/23 01:02:52;;;;;;;28.70;16.17;;;;;;;;;;5016751;28;20033;-64
2021/06/23 01:05:19;;;;;;;23.30;15.70;;;;;;;;;;5017012;28;20485;-64
2021/06/23 01:07:46;;;;;;;23.70;14.70;;;;;;;;;;5035052;28;20543;-64
2021/06/23 01:10:13;;;;;;;22.55;14.35;;;;;;;;;;5034800;28;20025;-64
2021/06/23 01:12:47;;;;;;;26.60;14.90;;;;;;;;;;5034713;28;20029;-64
2021/06/23 01:15:14;;;;;;;22.70;14.20;;;;;;;;;;5000620;28;20029;-64
2021/06/23 01:17:40;;;;;;;23.90;13.85;;;;;;;;;;5034570;28;20029;-64
2021/06/23 01:20:10;;;;;;;22.65;14.45;;;;;;;;;;5034669;28;20025;-64
2021/06/23 01:22:38;;;;;;;22.15;14.05;;;;;;;;;;5034104;28;20025;-64
2021/06/23 01:25:05;;;;;;;25.00;14.82;;;;;;;;;;5034211;28;20027;-64
2021/06/23 01:27:31;;;;;;;23.85;14.35;;;;;;;;;;5016821;28;20041;-64
2021/06/23 01:29:57;;;;;;;24.00;13.95;;;;;;;;;;5017666;28;20030;-64
2021/06/23 01:32:26;;;;;;;21.52;15.02;;;;;;;;;;5035174;28;20417;-64
2021/06/23 01:34:52;;;;;;;24.10;14.20;;;;;;;;;;5017491;28;20039;-65
2021/06/23 01:37:23;;;;;;;25.63;14.80;;;;;;;;;;5034115;28;20033;-65
2021/06/23 01:39:52;;;;;;;25.65;14.13;;;;;;;;;;5034956;28;20037;-64
2021/06/23 01:42:19;;;;;;;20.30;14.02;;;;;;;;;;5017342;28;20022;-64
2021/06/23 01:44:47;;;;;;;22.52;14.63;;;;;;;;;;5016700;28;20041;-63
2021/06/23 01:47:13;;;;;;;;;;;;;;;;;;5035108;28;20397;-64
2021/06/23 01:49:42;;;;;;;23.33;14.27;;;;;;;;;;5034958;28;19905;-64
2021/06/23 01:52:08;;;;;;;23.95;13.48;;;;;;;;;;5034533;28;20033;-65
2021/06/23 01:54:40;;;;;;;26.60;14.80;;;;;;;;;;5017008;28;20485;-64
2021/06/23 01:57:07;;;;;;;24.33;14.73;;;;;;;;;;5016938;28;20037;-64
2021/06/23 01:59:33;;;;;;;21.27;14.18;;;;;;;;;;5017342;28;20025;-64
2021/06/23 02:02:15;;;;;;;20.75;13.88;;;;;;;;;;5016730;28;20393;-64
2021/06/23 02:04:53;;;;;;;22.77;13.85;;;;;;;;;;5016582;28;20076;-64
2021/06/23 02:07:39;;;;;;;24.67;15.43;;;;;;;;;;5034904;28;20057;-65
2021/06/23 02:10:05;;;;;;;25.77;13.32;;;;;;;;;;5034976;28;20092;-66
2021/06/23 02:12:31;;;;;;;24.77;13.35;;;;;;;;;;5016930;28;20048;-65
2021/06/23 02:14:58;;;;;;;26.13;14.52;;;;;;;;;;5017199;28;20022;-65
2021/06/23 02:17:25;;;;;;;25.33;13.63;;;;;;;;;;5035893;28;20033;-64
2021/06/23 02:19:52;;;;;;;20.42;12.32;;;;;;;;;;5018175;28;20022;-62
2021/06/23 02:22:20;;;;;;;23.20;12.38;;;;;;;;;;5019398;28;20059;-64
2021/06/23 02:24:47;;;;;;;24.05;13.55;;;;;;;;;;5019806;28;20068;-65
2021/06/23 02:27:13;;;;;;;22.67;12.43;;;;;;;;;;5037394;28;20037;-65
2021/06/23 02:29:40;;;;;;;21.00;11.82;;;;;;;;;;5036745;28;20021;-64
2021/06/23 02:32:07;;;;;;;25.75;13.52;;;;;;;;;;5034332;28;20047;-65
2021/06/23 02:34:33;;;;;;;21.42;12.15;;;;;;;;;;5034004;28;20036;-65
2021/06/23 02:37:03;;;;;;;20.65;13.15;;;;;;;;;;5034772;28;20056;-65
2021/06/23 02:39:29;;;;;;;22.75;12.52;;;;;;;;;;5016781;28;20482;-65
2021/06/23 02:41:55;;;;;;;24.05;12.35;;;;;;;;;;5016340;28;20025;-65
2021/06/23 02:44:21;;;;;;;21.90;13.25;;;;;;;;;;5016407;28;20021;-64
2021/06/23 02:46:47;;;;;;;21.38;12.85;;;;;;;;;;5016597;28;20022;-65
2021/06/23 02:49:14;;;;;;;22.23;13.02;;;;;;;;;;5016743;28;20022;-65
2021/06/23 02:51:41;;;;;;;21.40;12.10;;;;;;;;;;5016516;28;20152;-65
2021/06/23 02:54:08;;;;;;;21.45;12.05;;;;;;;;;;5016371;28;20378;-65
2021/06/23 02:56:35;;;;;;;20.80;12.52;;;;;;;;;;5000317;28;20037;-65
2021/06/23 02:59:02;;;;;;;22.67;12.50;;;;;;;;;;5016490;28;20037;-65
2021/06/23 03:01:28;;;;;;;24.48;11.95;;;;;;;;;;5016251;28;20033;-65
2021/06/23 03:03:54;;;;;;;23.23;11.98;;;;;;;;;;5016880;28;20025;-65
2021/06/23 03:06:22;;;;;;;22.83;12.27;;;;;;;;;;5033672;28;20022;-65
2021/06/23 03:08:48;;;;;;;20.58;11.60;;;;;;;;;;5034055;28;20097;-64
2021/06/23 03:11:15;;;;;;;19.90;11.48;;;;;;;;;;5016315;28;20033;-65
2021/06/23 03:13:41;;;;;;;23.85;13.10;;;;;;;;;;5034090;28;20079;-65
2021/06/23 03:16:07;;;;;;;19.83;11.20;;;;;;;;;;5033594;28;20100;-64
2021/06/23 03:18:33;;;;;;;20.27;11.05;;;;;;;;;;5016276;28;20071;-65
2021/06/23 03:21:01;;;;;;;31.77;12.00;;;;;;;;;;5015733;28;20032;-65
2021/06/23 03:23:27;;;;;;;20.60;10.95;;;;;;;;;;5015823;28;20072;-65
2021/06/23 03:25:53;;;;;;;25.15;12.15;;;;;;;;;;5032644;28;20033;-65
2021/06/23 03:28:19;;;;;;;20.17;11.35;;;;;;;;;;5015959;28;20052;-65
2021/06/23 03:30:48;;;;;;;20.85;11.30;;;;;;;;;;5015805;28;20028;-65
2021/06/23 03:33:13;;;;;;;;;;;;;;;;;;5016174;28;20089;-64
2021/06/23 03:35:40;;;;;;;25.05;11.82;;;;;;;;;;5015978;28;20003;-64
2021/06/23 03:38:06;;;;;;;19.50;11.10;;;;;;;;;;5015170;28;20485;-64
2021/06/23 03:40:32;;;;;;;21.88;10.85;;;;;;;;;;5015629;28;20028;-64
2021/06/23 03:42:57;;;;;;;21.00;11.68;;;;;;;;;;5016041;28;20099;-64
2021/06/23 03:45:24;;;;;;;19.70;11.40;;;;;;;;;;5015066;28;20017;-64
2021/06/23 03:47:50;;;;;;;21.02;11.60;;;;;;;;;;5015478;28;20021;-64
2021/06/23 03:50:19;;;;;;;21.88;10.75;;;;;;;;;;5016011;28;20044;-65
2021/06/23 03:52:45;;;;;;;21.33;11.38;;;;;;;;;;5032387;28;20029;-65
2021/06/23 03:55:25;;;;;;;25.30;11.20;;;;;;;;;;5015412;28;20033;-64
2021/06/23 03:57:52;;;;;;;27.88;11.68;;;;;;;;;;5033017;28;20018;-65
2021/06/23 04:00:19;;;;;;;20.90;10.95;;;;;;;;;;5014819;28;20036;-64
2021/06/23 04:02:45;;;;;;;22.30;11.43;;;;;;;;;;5032750;28;20034;-65
2021/06/23 04:05:12;;;;;;;22.55;11.00;;;;;;;;;;5014928;28;20104;-65
2021/06/23 04:07:39;;;;;;;23.88;10.77;;;;;;;;;;5015192;28;20022;-65
2021/06/23 04:10:06;;;;;;;23.33;11.10;;;;;;;;;;5015243;28;20376;-65
2021/06/23 04:12:32;;;;;;;24.40;10.98;;;;;;;;;;5015720;28;20029;-65
2021/06/23 04:14:58;;;;;;;21.73;10.80;;;;;;;;;;5014915;28;20375;-66
2021/06/23 04:17:24;;;;;;;21.70;10.48;;;;;;;;;;5015154;28;20030;-65
2021/06/23 04:19:50;;;;;;;20.02;10.73;;;;;;;;;;5015033;28;20022;-64
2021/06/23 04:22:17;;;;;;;22.08;10.93;;;;;;;;;;5014865;28;20383;-65
2021/06/23 04:24:43;;;;;;;18.25;10.57;;;;;;;;;;5032373;28;20045;-64
2021/06/23 04:27:09;;;;;;;20.48;10.60;;;;;;;;;;5032701;28;20033;-64
2021/06/23 04:29:35;;;;;;;23.20;11.25;;;;;;;;;;5032711;28;20112;-64
2021/06/23 04:32:01;;;;;;;19.60;11.05;;;;;;;;;;5033022;28;20448;-64
2021/06/23 04:34:27;;;;;;;18.73;10.60;;;;;;;;;;5032233;28;20057;-64
2021/06/23 04:36:53;;;;;;;22.20;11.48;;;;;;;;;;5016728;28;20112;-64
2021/06/23 04:39:19;;;;;;;18.98;11.55;;;;;;;;;;5036433;28;20056;-65
2021/06/23 04:41:45;;;;;;;24.48;11.85;;;;;;;;;;5018806;28;20021;-64
2021/06/23 04:44:11;;;;;;;21.17;10.63;;;;;;;;;;5018770;28;20516;-64
2021/06/23 04:46:37;;;;;;;21.83;11.55;;;;;;;;;;5018188;28;20072;-64
2021/06/23 04:49:04;;;;;;;20.23;11.85;;;;;;;;;;5035712;28;20101;-65
2021/06/23 04:51:30;;;;;;;23.05;11.93;;;;;;;;;;5035905;28;20021;-65
2021/06/23 04:53:56;;;;;;;21.88;11.35;;;;;;;;;;5018288;28;20033;-65
2021/06/23 04:56:22;;;;;;;21.35;11.57;;;;;;;;;;5017996;28;20432;-65
2021/06/23 04:58:48;;;;;;;26.25;15.52;;;;;;;;;;5018556;28;20397;-65
2021/06/23 05:01:14;;;;;;;27.45;12.95;;;;;;;;;;5017812;28;20556;-64
2021/06/23 05:03:41;;;;;;;22.67;11.80;;;;;;;;;;5036411;28;20041;-65
2021/06/23 05:06:07;;;;;;;18.67;11.60;;;;;;;;;;5018032;28;20021;-64
2021/06/23 05:08:33;;;;;;;21.98;11.55;;;;;;;;;;5017655;28;20029;-63
2021/06/23 05:10:59;;;;;;;22.23;11.57;;;;;;;;;;5035636;28;20385;-65
2021/06/23 05:13:25;;;;;;;21.85;11.13;;;;;;;;;;5035623;28;20037;-65
2021/06/23 05:15:52;;;;;;;36.97;25.88;;;;;;;;;;5017243;28;20460;-65
2021/06/23 05:18:19;;;;;;;34.08;23.98;;;;;;;;;;5017258;28;20542;-62
2021/06/23 05:20:45;;;;;;;23.83;11.60;;;;;;;;;;5017097;28;20036;-65
2021/06/23 05:23:11;;;;;;;19.38;11.05;;;;;;;;;;5017131;28;20021;-64
2021/06/23 05:25:37;;;;;;;22.40;12.55;;;;;;;;;;5017357;28;20029;-66
2021/06/23 05:28:03;;;;;;;20.88;12.23;;;;;;;;;;5017143;28;20026;-65
2021/06/23 05:30:29;;;;;;;23.00;12.18;;;;;;;;;;5016952;28;20028;-65
2021/06/23 05:32:55;;;;;;;22.30;12.40;;;;;;;;;;5016866;28;20068;-65
2021/06/23 05:35:21;;;;;;;19.33;10.98;;;;;;;;;;5016838;28;20026;-66
2021/06/23 05:37:47;;;;;;;32.75;20.75;;;;;;;;;;5034743;28;20025;-68
2021/06/23 05:40:14;;;;;;;22.20;11.90;;;;;;;;;;5017215;28;20497;-65
2021/06/23 05:42:41;;;;;;;25.38;12.75;;;;;;;;;;5016460;28;20034;-66
2021/06/23 05:45:08;;;;;;;25.80;12.27;;;;;;;;;;5016868;28;20120;-67
2021/06/23 05:47:34;;;;;;;23.80;12.13;;;;;;;;;;5015864;28;20482;-64
2021/06/23 05:50:03;;;;;;;24.35;11.52;;;;;;;;;;5016738;28;20466;-64
2021/06/23 05:52:29;;;;;;;23.30;12.02;;;;;;;;;;5035052;28;20057;-63
2021/06/23 05:54:55;;;;;;;21.08;12.00;;;;;;;;;;5034281;28;20055;-65
2021/06/23 05:57:20;;;;;;;21.48;10.90;;;;;;;;;;5016800;28;20025;-66
2021/06/23 05:59:47;;;;;;;25.10;12.13;;;;;;;;;;5015540;28;20374;-66
2021/06/23 06:02:13;;;;;;;23.15;10.60;;;;;;;;;;5016056;28;20056;-66
2021/06/23 06:04:41;;;;;;;20.40;12.30;;;;;;;;;;5033749;28;20429;-66
2021/06/23 06:07:07;;;;;;;20.77;11.55;;;;;;;;;;5016352;28;20025;-62
2021/06/23 06:09:34;;;;;;;24.58;11.50;;;;;;;;;;5034161;28;20025;-64
2021/06/23 06:12:00;;;;;;;32.17;12.82;;;;;;;;;;5034453;28;20026;-63
2021/06/23 06:14:26;;;;;;;22.05;11.18;;;;;;;;;;5015810;28;20029;-67
2021/06/23 06:16:52;;;;;;;19.73;11.23;;;;;;;;;;5033884;28;20025;-64
2021/06/23 06:19:18;;;;;;;18.58;11.23;;;;;;;;;;5015596;28;20030;-65
2021/06/23 06:21:44;;;;;;;19.83;11.07;;;;;;;;;;5033931;28;20071;-64
2021/06/23 06:24:10;;;;;;;23.65;10.82;;;;;;;;;;5033458;28;20101;-63
2021/06/23 06:26:36;;;;;;;21.88;10.52;;;;;;;;;;5034873;28;20026;-64
2021/06/23 06:29:03;;;;;;;20.02;10.55;;;;;;;;;;5033613;28;20493;-63
2021/06/23 06:31:29;;;;;;;31.00;11.00;;;;;;;;;;5031043;28;20021;-65
2021/06/23 06:33:55;;;;;;;22.55;10.90;;;;;;;;;;5032996;28;20036;-65
2021/06/23 06:36:21;;;;;;;22.70;10.48;;;;;;;;;;5014751;28;20465;-66
2021/06/23 06:38:47;;;;;;;22.20;10.50;;;;;;;;;;5032723;28;20056;-63
2021/06/23 06:41:14;;;;;;;19.15;10.10;;;;;;;;;;5032711;28;20060;-65
2021/06/23 06:43:40;;;;;;;15.90;9.40;;;;;;;;;;5032799;28;20028;-65
2021/06/23 06:46:06;;;;;;;20.35;10.02;;;;;;;;;;5032345;28;20093;-65
2021/06/23 06:48:32;;;;;;;19.92;10.25;;;;;;;;;;5032408;28;20024;-65
2021/06/23 06:50:57;;;;;;;18.23;10.52;;;;;;;;;;5032062;28;20199;-63
2021/06/23 06:53:24;;;;;;;18.92;10.10;;;;;;;;;;5014157;28;20025;-64
2021/06/23 06:55:50;;;;;;;20.48;10.38;;;;;;;;;;5013886;28;20405;-66
2021/06/23 06:58:16;;;;;;;20.02;9.93;;;;;;;;;;5032381;28;20029;-64
2021/06/23 07:00:43;;;;;;;25.13;11.00;;;;;;;;;;5014452;28;20421;-65
2021/06/23 07:03:09;;;;;;;18.52;10.15;;;;;;;;;;5032425;28;20021;-64
2021/06/23 07:05:35;;;;;;;23.00;10.02;;;;;;;;;;5031693;28;20028;-65
2021/06/23 07:08:01;;;;;;;22.38;12.23;;;;;;;;;;5032833;28;20021;-65
2021/06/23 07:10:27;;;;;;;22.92;10.93;;;;;;;;;;5031874;28;20021;-65
2021/06/23 07:12:53;;;;;;;20.70;10.40;;;;;;;;;;5032369;28;20040;-64
2021/06/23 07:15:19;;;;;;;22.77;12.02;;;;;;;;;;5014193;28;20485;-66
2021/06/23 07:17:45;;;;;;;22.27;11.88;;;;;;;;;;5032117;28;20021;-65
2021/06/23 07:20:11;;;;;;;18.92;10.32;;;;;;;;;;5032078;28;20029;-65
2021/06/23 07:22:37;;;;;;;19.48;10.98;;;;;;;;;;5014184;28;20524;-62
2021/06/23 07:25:04;;;;;;;23.13;10.90;;;;;;;;;;5030842;28;20520;-65
2021/06/23 07:27:30;;;;;;;22.10;10.70;;;;;;;;;;5031664;28;20501;-64
2021/06/23 07:29:56;;;;;;;18.75;10.40;;;;;;;;;;5032023;28;20026;-65
2021/06/23 07:32:31;;;;;;;17.17;10.60;;;;;;;;;;5032602;28;20057;-62
2021/06/23 07:37:41;;;;;;;19.02;10.98;;;;;;;;;;5035854;28;20040;-63
2021/06/23 07:40:08;;;;;;;19.02;11.90;;;;;;;;;;5033547;28;20638;-63
2021/06/23 07:42:34;;;;;;;19.98;11.38;;;;;;;;;;5031757;28;20432;-64
2021/06/23 07:45:02;;;;;;;22.15;11.40;;;;;;;;;;5031541;28;20426;-63
2021/06/23 07:47:33;;;;;;;21.40;10.98;;;;;;;;;;5031453;28;20025;-64
2021/06/23 07:49:59;;;;;;;24.30;11.15;;;;;;;;;;5031339;28;20038;-64
2021/06/23 07:52:33;;;;;;;21.65;11.25;;;;;;;;;;5013987;28;20064;-64
2021/06/23 08:08:53;;;;;;;21.15;12.35;;;;;;;;;;5031568;28;20056;-61
2021/06/23 08:11:22;;;;;;;18.33;11.65;;;;;;;;;;5032852;28;20026;-58
2021/06/23 08:13:48;;;;;;;20.58;11.10;;;;;;;;;;5035710;28;20029;-58
2021/06/23 08:16:14;;;;;;;18.42;11.85;;;;;;;;;;5033891;28;20034;-57
2021/06/23 08:18:40;;;;;;;16.75;10.68;;;;;;;;;;5035878;28;20481;-54
2021/06/23 08:21:06;;;;;;;20.00;11.35;;;;;;;;;;5034182;28;20035;-56
2021/06/23 08:23:32;;;;;;;19.83;12.57;;;;;;;;;;5035155;28;20021;-57
2021/06/23 08:25:58;;;;;;;18.67;11.40;;;;;;;;;;5035218;28;20056;-56
2021/06/23 08:28:25;;;;;;;23.00;11.38;;;;;;;;;;5035106;28;20084;-53
2021/06/23 08:30:51;;;;;;;19.02;11.80;;;;;;;;;;5035193;28;20017;-54
2021/06/23 08:33:17;;;;;;;19.13;11.25;;;;;;;;;;5035231;28;20059;-53
2021/06/23 08:35:43;;;;;;;20.85;11.95;;;;;;;;;;5035131;28;20018;-57
2021/06/23 08:38:09;;;;;;;20.13;11.35;;;;;;;;;;5035119;28;20078;-57
2021/06/23 08:40:35;;;;;;;20.88;12.18;;;;;;;;;;5017617;28;20489;-52
2021/06/23 08:43:01;;;;;;;22.15;11.57;;;;;;;;;;5035137;28;20022;-52
2021/06/23 08:45:27;;;;;;;21.38;12.25;;;;;;;;;;5034324;28;20100;-58
2021/06/23 08:47:53;;;;;;;22.13;12.70;;;;;;;;;;5016988;28;20048;-56
2021/06/23 08:50:21;;;;;;;17.40;12.27;;;;;;;;;;5017172;28;20021;-57
2021/06/23 08:52:47;;;;;;;21.40;12.77;;;;;;;;;;5035140;28;20101;-58
2021/06/23 08:55:18;;;;;;;21.77;13.85;;;;;;;;;;5034284;28;20035;-55
2021/06/23 08:57:45;;;;;;;19.35;13.50;;;;;;;;;;5018010;28;20067;-56
2021/06/23 09:00:11;;;;;;;20.05;13.40;;;;;;;;;;5034949;28;20037;-55
2021/06/23 09:02:37;;;;;;;20.00;12.45;;;;;;;;;;5017105;28;20107;-57
2021/06/23 09:05:13;;;;;;;21.73;14.43;;;;;;;;;;5034564;28;20037;-59
2021/06/23 09:07:42;;;;;;;21.65;14.43;;;;;;;;;;5034618;28;20482;-55
2021/06/23 09:10:28;;;;;;;19.73;13.35;;;;;;;;;;5034687;28;20024;-60
2021/06/23 09:13:06;;;;;;;21.13;13.40;;;;;;;;;;5024265;28;20065;-56
2021/06/23 09:15:51;;;;;;;19.35;12.77;;;;;;;;;;5034600;28;20017;-58
2021/06/23 09:18:20;;;;;;;20.33;13.35;;;;;;;;;;5034813;28;20053;-55
2021/06/23 09:20:47;;;;;;;20.80;13.60;;;;;;;;;;5016669;28;20025;-58
2021/06/23 09:23:13;;;;;;;20.70;14.10;;;;;;;;;;5033046;28;20018;-57
2021/06/23 09:25:44;;;;;;;19.48;14.25;;;;;;;;;;5033927;28;20017;-54
2021/06/23 09:28:14;;;;;;;22.63;15.18;;;;;;;;;;5034104;28;20104;-60
2021/06/23 09:30:41;;;;;;;23.58;15.13;;;;;;;;;;5016403;28;20393;-58
2021/06/23 09:33:07;;;;;;;21.52;14.75;;;;;;;;;;5034423;28;20102;-56
2021/06/23 09:35:34;;;;;;;22.73;14.13;;;;;;;;;;5015998;28;20025;-57
2021/06/23 09:38:00;;;;;;;22.15;14.40;;;;;;;;;;5033958;28;20068;-58
2021/06/23 09:40:29;;;;;;;20.92;14.25;;;;;;;;;;5034158;28;20444;-57
2021/06/23 09:43:00;;;;;;;19.48;15.18;;;;;;;;;;5033878;28;20102;-57
2021/06/23 09:45:26;;;;;;;20.88;14.60;;;;;;;;;;5033855;28;20026;-54
2021/06/23 09:48:03;;;;;;;25.08;15.52;;;;;;;;;;5016164;28;20581;-56
2021/06/23 09:50:30;;;;;;;22.10;14.98;;;;;;;;;;5014858;28;20030;-60
2021/06/23 09:52:58;;;;;;;22.42;15.60;;;;;;;;;;5014360;28;20028;-58
2021/06/23 09:55:41;;;;;;;20.43;15.40;;;;;;;;;;5032256;28;20068;-55
2021/06/23 09:58:14;;;;;;;22.27;17.33;;;;;;;;;;5032278;28;20493;-59
2021/06/23 10:00:57;;;;;;;18.67;14.50;;;;;;;;;;5014494;28;20025;-56
2021/06/23 10:03:23;;;;;;;20.17;15.30;;;;;;;;;;5032875;28;20366;-55
2021/06/23 10:05:49;;;;;;;20.25;14.13;;;;;;;;;;5033919;28;20044;-57
2021/06/23 10:08:22;;;;;;;19.83;14.57;;;;;;;;;;5033663;28;20284;-56
2021/06/23 10:10:48;;;;;;;23.40;15.07;;;;;;;;;;5033392;28;20044;-58
2021/06/23 10:13:16;;;;;;;21.58;15.05;;;;;;;;;;5033395;28;20028;-57
2021/06/23 10:15:42;;;;;;;19.00;14.27;;;;;;;;;;5033341;28;20021;-59
2021/06/23 10:18:09;;;;;;;19.35;14.35;;;;;;;;;;5015614;28;20099;-59
2021/06/23 10:20:35;;;;;;;23.45;15.63;;;;;;;;;;5032837;28;20092;-57
2021/06/23 10:23:03;;;;;;;19.77;14.77;;;;;;;;;;5032839;28;20453;-55
2021/06/23 10:25:29;;;;;;;;;;;;;;;;;;5032974;28;20040;-58
2021/06/23 10:27:55;;;;;;;26.27;14.90;;;18.80;99.90;;;;;;5032627;28;19917;-55
2021/06/23 10:30:26;;;;;;;20.55;14.00;;;20.30;99.90;;;;;;5032816;28;20021;-56
2021/06/23 10:32:52;;;;;;;22.38;14.85;;;20.30;99.90;;;;;;5032999;28;20292;-56
2021/06/23 10:35:17;;;;;;;21.05;14.77;;;20.40;99.90;;;;;;5032278;28;20037;-55
2021/06/23 10:37:45;;;;;;;22.05;14.25;;;20.20;99.90;;;;;;5032861;28;20030;-57
2021/06/23 10:40:14;;;;;;;21.13;14.53;;;20.30;99.90;;;;;;5015071;28;20030;-56
2021/06/23 10:42:39;;;;;;;23.92;15.07;;;20.50;99.90;;;;;;5012298;28;20037;-58
2021/06/23 10:45:06;;;;;;;24.60;15.32;;;20.30;99.90;;;;;;5012900;28;20482;-58
2021/06/23 10:47:34;;;;;;;21.58;15.13;;;20.30;99.90;;;;;;5012665;28;20026;-56
2021/06/23 10:50:01;;;;;;;22.55;15.18;;;19.90;99.90;;;;;;4995221;28;20022;-55
2021/06/23 10:52:30;;;;;;;27.23;15.02;;;20.10;99.90;;;;;;5015894;28;20033;-54
2021/06/23 10:55:03;;;;;;;22.13;14.73;;;20.20;99.90;;;;;;5029196;28;20022;-56
2021/06/23 10:57:36;;;;;;;20.92;15.32;;;20.40;99.90;;;;;;5029747;28;20037;-59
2021/06/23 11:00:23;;;;;;;20.92;14.75;;;20.40;99.90;;;;;;5029434;28;20097;-58
2021/06/23 11:02:58;;;;;;;21.75;14.50;;;20.30;99.90;;;;;;5011250;28;20068;-59
2021/06/23 11:05:23;;;;;;;21.50;14.70;;;20.60;99.90;;;;;;5010763;28;20367;-59
2021/06/23 11:07:55;;;;;;;23.08;15.40;;;;;;;;;;5028763;28;20056;-59
2021/06/23 11:10:34;;;;;;;22.63;14.75;;;;;;;;;;5028685;28;20139;-57
2021/06/23 11:13:00;;;;;;;23.50;14.35;;;;;;;;;;5028578;28;20018;-60
2021/06/23 11:15:26;;;;;;;24.48;15.45;;;;;;;;;;5028178;28;20124;-58
2021/06/23 11:17:54;;;;;;;25.85;16.55;;;;;;;;;;5028454;28;20064;-59
2021/06/23 11:20:20;;;;;;;24.90;17.23;;;;;;;;;;5028995;28;20049;-54
2021/06/23 11:22:46;;;;;;;22.63;15.65;;;;;;;;;;5010859;28;20044;-57
2021/06/23 11:25:23;;;;;;;20.83;15.90;;;;;;;;;;5010638;28;20647;-55
2021/06/23 11:28:08;;;;;;;23.40;16.50;;;;;;;;;;5026469;28;20044;-56
2021/06/23 11:30:38;;;;;;;21.55;16.23;;;;;;;;;;5027708;28;20041;-57
2021/06/23 11:33:33;;;;;;;29.17;17.45;;;;;;;;;;5026246;28;20034;-55
2021/06/23 11:36:00;;;;;;;19.73;16.02;;;;;;;;;;5008757;28;20563;-58
2021/06/23 11:38:27;;;;;;;26.92;16.50;;;;;;;;;;5010032;28;20599;-56
2021/06/23 11:40:54;;;;;;;23.20;16.75;;;;;;;;;;5027800;28;20029;-54
2021/06/23 11:43:20;;;;;;;20.73;16.40;;;;;;;;;;5029446;28;20022;-59
2021/06/23 11:45:46;;;;;;;19.65;16.75;;;;;;;;;;5050031;28;20029;-52
2021/06/23 11:48:12;;;;;;;22.67;16.92;;;;;;;;;;5051315;28;20037;-55
2021/06/23 11:50:40;;;;;;;24.08;17.20;;;;;;;;;;5033608;28;20025;-55
2021/06/23 11:53:07;;;;;;;22.50;16.10;;;;;;;;;;5033136;28;20138;-57
2021/06/23 11:55:33;;;;;;;21.10;15.52;;;;;;;;;;5051727;28;20025;-56
2021/06/23 11:58:00;;;;;;;20.30;16.35;;;;;;;;;;5051447;28;20477;-54
2021/06/23 12:00:27;;;;;;;20.90;15.88;;;;;;;;;;5051817;28;20100;-54
2021/06/23 12:02:53;;;;;;;22.50;16.60;;;;;;;;;;5051825;28;20036;-54
2021/06/23 12:05:20;;;;;;;22.85;17.27;;;;;;;;;;5051056;28;20067;-57
2021/06/23 12:07:46;;;;;;;24.83;17.90;;;;;;;;;;5050802;28;20036;-59
2021/06/23 12:10:13;;;;;;;23.15;17.25;;;;;;;;;;5051145;28;20140;-54
2021/06/23 12:12:39;;;;;;;22.15;17.90;;;;;;;;;;5052014;28;20500;-57
2021/06/23 12:15:07;;;;;;;24.85;18.02;;;;;;;;;;5033203;28;20509;-53
2021/06/23 12:17:33;;;;;;;21.50;17.48;;;;;;;;;;5051086;28;20067;-57
2021/06/23 12:20:01;;;;;;;20.77;17.50;;;;;;;;;;5033468;28;20511;-54
2021/06/23 12:22:27;;;;;;;23.33;18.00;;;;;;;;;;5051009;28;20032;-55
2021/06/23 12:24:53;;;;;;;22.88;17.40;;;;;;;;;;5032955;28;20025;-56
2021/06/23 12:27:19;;;;;;;24.70;17.13;;;;;;;;;;5046409;22;20042;-63
2021/06/23 12:29:45;;;;;;;21.88;17.08;;;;;;;;;;5025754;28;20108;-63
2021/06/23 12:32:11;;;;;;;21.45;16.42;;;;;;;;;;5002244;28;20054;-64
2021/06/23 12:34:37;;;;;;;21.10;16.80;;;;;;;;;;4991106;28;20054;-65
2021/06/23 12:37:03;;;;;;;22.58;17.10;;;;;;;;;;5006354;28;20052;-65
2021/06/23 12:39:29;;;;;;;22.23;18.98;;;;;;;;;;5012063;28;20029;-63
2021/06/23 12:41:56;;;;;;;21.45;18.10;;;;;;;;;;5010817;28;20088;-63
2021/06/23 12:44:22;;;;;;;21.25;16.83;;;;;;;;;;5010692;28;20088;-63
2021/06/23 12:46:48;;;;;;;21.05;16.88;;;;;;;;;;5010674;28;20471;-63
2021/06/23 12:49:14;;;;;;;21.45;17.50;;;;;;;;;;5012367;28;20041;-63
2021/06/23 12:51:40;;;;;;;26.35;18.98;;;;;;;;;;5010518;28;20022;-61
2021/06/23 12:54:06;;;;;;;23.40;17.58;;;;;;;;;;5010525;28;20045;-61
2021/06/23 12:56:32;;;;;;;22.20;18.02;;;;;;;;;;5010403;28;20018;-63
2021/06/23 12:58:58;;;;;;;22.50;17.27;;;;;;;;;;5015013;28;20034;-61
2021/06/23 13:01:24;;;;;;;22.88;17.70;;;;;;;;;;5013747;28;20152;-62
2021/06/23 13:03:50;;;;;;;21.05;16.92;;;;;;;;;;5015074;28;20462;-61
2021/06/23 13:06:16;;;;;;;21.35;16.95;;;;;;;;;;5014630;28;20022;-62
2021/06/23 13:08:42;;;;;;;21.85;17.88;;;;;;;;;;5013605;28;20030;-59
2021/06/23 13:11:08;;;;;;;21.27;17.20;;;;;;;;;;5014986;28;20017;-62
2021/06/23 13:13:34;;;;;;;22.70;17.40;;;;;;;;;;5014140;28;20024;-62
2021/06/23 13:16:02;;;;;;;20.10;17.02;;;;;;;;;;5014770;28;20053;-55
2021/06/23 13:18:28;;;;;;;25.42;17.85;;;;;;;;;;5013326;28;20030;-60
2021/06/23 13:20:54;;;;;;;29.13;22.25;;;;;;;;;;4318665;28;10000644;-59
2021/06/23 13:23:21;;;;;;;23.98;18.83;;;;;;;;;;4993251;28;20039;-61
2021/06/23 13:25:48;;;;;;;22.63;18.08;;;;;;;;;;5009054;28;20030;-62
2021/06/23 13:28:14;;;;;;;23.60;18.55;;;;;;;;;;5010817;28;20478;-62
2021/06/23 13:30:40;;;;;;;21.77;18.98;;;;;;;;;;5012121;28;20026;-64
2021/06/23 13:33:06;;;;;;;23.85;18.92;;;;;;;;;;5010458;28;20482;-64
2021/06/23 13:35:32;;;;;;;24.33;18.38;;;;;;;;;;5013800;28;20087;-64
2021/06/23 13:37:58;;;;;;;23.95;18.38;;;;;;;;;;5010980;28;20029;-61
2021/06/23 13:40:25;;;;;;;22.48;18.70;;;;;;;;;;5011247;28;20030;-64
2021/06/23 13:42:52;;;;;;;22.17;18.75;;;;;;;;;;5012598;28;20037;-65
2021/06/23 13:45:18;;;;;;;23.25;19.27;;;;;;;;;;5012367;28;20026;-64
2021/06/23 13:47:45;;;;;;;21.50;18.20;;;;;;;;;;5010524;28;20021;-63
2021/06/23 13:50:15;;;;;;;21.73;18.60;;;;;;;;;;5009453;28;20116;-64
2021/06/23 13:52:42;;;;;;;21.48;19.17;;;;;;;;;;5013864;28;20482;-64
2021/06/23 13:55:08;;;;;;;22.42;18.40;;;;;;;;;;5014026;28;20076;-64
2021/06/23 13:57:39;;;;;;;22.27;18.75;;;;;;;;;;5013422;28;20030;-64
2021/06/23 14:00:06;;;;;;;23.42;19.40;;;;;;;;;;5012720;28;20026;-63
2021/06/23 14:02:32;;;;;;;23.73;18.77;;;;;;;;;;5012305;28;20128;-63
2021/06/23 14:04:58;;;;;;;25.52;20.33;;;;;;;;;;5013120;28;20108;-62
2021/06/23 14:07:24;;;;;;;22.75;18.88;;;;;;;;;;5013014;28;20096;-63
2021/06/23 14:09:50;;;;;;;22.25;19.52;;;;;;;;;;5012818;28;20030;-63
2021/06/23 14:12:16;;;;;;;22.70;19.15;;;;;;;;;;5013359;28;20080;-62
2021/06/23 14:14:42;;;;;;;23.60;19.00;;;;;;;;;;5012869;28;20029;-63
2021/06/23 14:17:08;;;;;;;22.08;19.67;;;;;;;;;;5013152;28;20022;-61
2021/06/23 14:19:34;;;;;;;22.20;18.00;;;;;;;;;;5012225;28;20100;-64
2021/06/23 14:22:00;;;;;;;23.25;19.17;;;;;;;;;;5012728;28;20033;-63
2021/06/23 14:24:26;;;;;;;25.02;19.52;;;;;;;;;;5011031;28;20022;-63
2021/06/23 14:26:52;;;;;;;25.02;19.33;;;;;;;;;;5013605;28;20033;-61
2021/06/23 14:29:18;;;;;;;22.55;18.88;;;;;;;;;;5013248;28;20029;-63